Time,TemperatureF,DewpointF,PressureIn,WindDirection,WindDirectionDegrees,WindSpeedMPH,WindSpeedGustMPH,Humidity,HourlyPrecipIn,Conditions,Clouds,dailyrainin,SoftwareType,DateUTC
2013-02-10 00:02:00,22.8,18.4,25.00,West,271,4.0,5.0,83,0.00,,,0.00,Wunderground v.1.15,2013-02-10 07:02:00,
2013-02-10 00:07:00,22.7,18.3,25.01,WSW,250,4.0,6.0,83,0.00,,,0.00,Wunderground v.1.15,2013-02-10 07:07:00,
2013-02-10 00:12:00,22.3,17.9,25.01,West,270,3.0,4.0,83,0.00,,,0.00,Wunderground v.1.15,2013-02-10 07:12:00,
2013-02-10 00:17:00,22.4,18.3,25.01,WSW,257,6.0,7.0,84,0.00,,,0.00,Wunderground v.1.15,2013-02-10 07:17:00,
2013-02-10 00:22:00,22.3,18.2,25.01,West,261,6.0,7.0,84,0.00,,,0.00,Wunderground v.1.15,2013-02-10 07:22:00,
2013-02-10 00:27:00,22.5,18.4,25.01,West,260,5.0,7.0,84,0.00,,,0.00,Wunderground v.1.15,2013-02-10 07:27:00,
2013-02-10 00:32:00,22.7,18.6,25.01,West,275,4.0,5.0,84,0.00,,,0.00,Wunderground v.1.15,2013-02-10 07:32:00,
2013-02-10 00:37:00,23.1,19.0,25.01,WNW,284,3.0,5.0,84,0.00,,,0.00,Wunderground v.1.15,2013-02-10 07:37:00,
2013-02-10 00:42:00,23.1,18.7,25.01,West,269,2.0,4.0,83,0.00,,,0.00,Wunderground v.1.15,2013-02-10 07:42:00,
2013-02-10 00:47:00,22.1,16.9,25.01,West,269,0.0,4.0,80,0.00,,,0.00,Wunderground v.1.15,2013-02-10 07:47:00,
2013-02-10 00:52:00,20.9,16.3,25.01,West,269,2.0,3.0,82,0.00,,,0.00,Wunderground v.1.15,2013-02-10 07:52:00,
2013-02-10 00:57:00,20.7,16.6,25.01,West,269,0.0,3.0,84,0.00,,,0.00,Wunderground v.1.15,2013-02-10 07:57:00,
2013-02-10 01:02:00,20.4,16.3,25.01,West,269,0.0,1.0,84,0.00,,,0.00,Wunderground v.1.15,2013-02-10 08:02:00,
2013-02-10 01:07:00,20.2,16.4,25.01,West,269,0.0,1.0,85,0.00,,,0.00,Wunderground v.1.15,2013-02-10 08:07:00,
2013-02-10 01:12:00,20.1,16.6,25.01,West,269,0.0,0.0,86,0.00,,,0.00,Wunderground v.1.15,2013-02-10 08:12:00,
2013-02-10 01:17:00,20.3,17.0,25.01,West,269,0.0,1.0,87,0.00,,,0.00,Wunderground v.1.15,2013-02-10 08:17:00,
2013-02-10 01:22:00,20.9,17.9,25.01,West,262,1.0,2.0,88,0.00,,,0.00,Wunderground v.1.15,2013-02-10 08:22:00,
2013-02-10 01:27:00,21.6,18.6,25.02,West,261,0.0,2.0,88,0.00,,,0.00,Wunderground v.1.15,2013-02-10 08:27:00,
2013-02-10 01:32:00,22.0,18.7,25.02,West,281,0.0,0.0,87,0.00,,,0.00,Wunderground v.1.15,2013-02-10 08:32:00,
2013-02-10 01:37:00,22.8,19.5,25.02,West,273,1.0,3.0,87,0.00,,,0.00,Wunderground v.1.15,2013-02-10 08:37:00,
2013-02-10 01:42:00,23.5,19.7,25.02,West,273,2.0,2.0,85,0.00,,,0.00,Wunderground v.1.15,2013-02-10 08:42:00,
2013-02-10 01:47:00,23.5,19.4,25.02,North,350,0.0,3.0,84,0.00,,,0.00,Wunderground v.1.15,2013-02-10 08:47:00,
2013-02-10 01:52:00,23.4,19.3,25.02,NW,317,0.0,1.0,84,0.00,,,0.00,Wunderground v.1.15,2013-02-10 08:52:00,
2013-02-10 01:57:00,23.4,19.0,25.02,West,265,0.0,2.0,83,0.00,,,0.00,Wunderground v.1.15,2013-02-10 08:57:00,
2013-02-10 02:02:00,22.2,17.5,25.02,NE,45,1.0,1.0,82,0.00,,,0.00,Wunderground v.1.15,2013-02-10 09:02:00,
2013-02-10 02:07:00,22.1,18.3,25.02,NE,46,0.0,1.0,85,0.00,,,0.00,Wunderground v.1.15,2013-02-10 09:07:00,
2013-02-10 02:12:00,22.0,18.2,25.03,WNW,290,1.0,1.0,85,0.00,,,0.00,Wunderground v.1.15,2013-02-10 09:12:00,
2013-02-10 02:17:00,21.7,17.6,25.03,WNW,289,0.0,1.0,84,0.00,,,0.00,Wunderground v.1.15,2013-02-10 09:17:00,
2013-02-10 02:22:00,21.5,17.7,25.03,WNW,290,0.0,0.0,85,0.00,,,0.00,Wunderground v.1.15,2013-02-10 09:22:00,
2013-02-10 02:27:00,21.3,17.5,25.03,WNW,290,0.0,0.0,85,0.00,,,0.00,Wunderground v.1.15,2013-02-10 09:27:00,
2013-02-10 02:32:00,21.6,18.1,25.03,SE,130,2.0,2.0,86,0.00,,,0.00,Wunderground v.1.15,2013-02-10 09:32:00,
2013-02-10 02:37:00,21.3,17.5,25.03,WSW,248,1.0,3.0,85,0.00,,,0.00,Wunderground v.1.15,2013-02-10 09:37:00,
2013-02-10 02:42:00,21.4,18.1,25.02,WSW,248,1.0,1.0,87,0.00,,,0.00,Wunderground v.1.15,2013-02-10 09:42:00,
2013-02-10 02:47:00,21.1,17.6,25.03,West,275,2.0,3.0,86,0.00,,,0.00,Wunderground v.1.15,2013-02-10 09:47:00,
2013-02-10 02:52:00,21.3,18.0,25.02,West,274,1.0,2.0,87,0.00,,,0.00,Wunderground v.1.15,2013-02-10 09:52:00,
2013-02-10 02:57:00,21.2,17.7,25.03,West,275,0.0,2.0,86,0.00,,,0.00,Wunderground v.1.15,2013-02-10 09:57:00,
2013-02-10 03:02:00,21.5,18.5,25.02,West,274,2.0,2.0,88,0.00,,,0.00,Wunderground v.1.15,2013-02-10 10:02:00,
2013-02-10 03:07:00,21.6,18.1,25.02,West,262,1.0,2.0,86,0.00,,,0.00,Wunderground v.1.15,2013-02-10 10:07:00,
2013-02-10 03:12:00,21.1,17.6,25.03,West,265,3.0,3.0,86,0.00,,,0.00,Wunderground v.1.15,2013-02-10 10:12:00,
2013-02-10 03:17:00,21.2,17.9,25.03,West,260,0.0,3.0,87,0.00,,,0.00,Wunderground v.1.15,2013-02-10 10:17:00,
2013-02-10 03:22:00,20.9,17.4,25.03,West,260,0.0,2.0,86,0.00,,,0.00,Wunderground v.1.15,2013-02-10 10:22:00,
2013-02-10 03:27:00,20.6,17.1,25.03,West,260,1.0,2.0,86,0.00,,,0.00,Wunderground v.1.15,2013-02-10 10:27:00,
2013-02-10 03:32:00,20.9,17.9,25.03,ENE,73,0.0,2.0,88,0.00,,,0.00,Wunderground v.1.15,2013-02-10 10:32:00,
2013-02-10 03:37:00,21.3,18.3,25.03,ENE,71,3.0,3.0,88,0.00,,,0.00,Wunderground v.1.15,2013-02-10 10:37:00,
2013-02-10 03:42:00,21.6,18.3,25.03,ENE,61,0.0,4.0,87,0.00,,,0.00,Wunderground v.1.15,2013-02-10 10:42:00,
2013-02-10 03:47:00,21.6,18.3,25.03,ENE,61,0.0,4.0,87,0.00,,,0.00,Wunderground v.1.15,2013-02-10 10:47:00,
2013-02-10 03:52:00,21.1,17.3,25.03,WSW,248,1.0,1.0,85,0.00,,,0.00,Wunderground v.1.15,2013-02-10 10:52:00,
2013-02-10 03:57:00,20.3,16.8,25.04,WSW,250,0.0,4.0,86,0.00,,,0.00,Wunderground v.1.15,2013-02-10 10:57:00,
2013-02-10 04:02:00,20.3,17.0,25.04,NNW,348,0.0,1.0,87,0.00,,,0.00,Wunderground v.1.15,2013-02-10 11:02:00,
2013-02-10 04:07:00,20.7,17.7,25.04,WNW,284,2.0,4.0,88,0.00,,,0.00,Wunderground v.1.15,2013-02-10 11:07:00,
2013-02-10 04:12:00,20.1,16.6,25.04,WNW,291,3.0,4.0,86,0.00,,,0.00,Wunderground v.1.15,2013-02-10 11:12:00,
2013-02-10 04:17:00,19.4,15.9,25.05,WSW,242,2.0,5.0,86,0.00,,,0.00,Wunderground v.1.15,2013-02-10 11:17:00,
2013-02-10 04:22:00,19.6,16.9,25.05,SW,229,4.0,4.0,89,0.00,,,0.00,Wunderground v.1.15,2013-02-10 11:22:00,
2013-02-10 04:27:00,20.4,17.9,25.04,SW,236,8.0,8.0,90,0.00,,,0.00,Wunderground v.1.15,2013-02-10 11:27:00,
2013-02-10 04:32:00,21.6,19.1,25.05,East,82,2.0,4.0,90,0.00,,,0.00,Wunderground v.1.15,2013-02-10 11:32:00,
2013-02-10 04:37:00,22.5,19.7,25.05,NW,321,1.0,5.0,89,0.00,,,0.00,Wunderground v.1.15,2013-02-10 11:37:00,
2013-02-10 04:42:00,22.8,19.5,25.05,West,272,1.0,2.0,87,0.00,,,0.00,Wunderground v.1.15,2013-02-10 11:42:00,
2013-02-10 04:47:00,22.9,19.3,25.06,West,261,1.0,3.0,86,0.00,,,0.00,Wunderground v.1.15,2013-02-10 11:47:00,
2013-02-10 04:52:00,22.8,19.2,25.06,West,263,0.0,2.0,86,0.00,,,0.00,Wunderground v.1.15,2013-02-10 11:52:00,
2013-02-10 04:57:00,22.8,19.0,25.06,West,269,3.0,6.0,85,0.00,,,0.00,Wunderground v.1.15,2013-02-10 11:57:00,
2013-02-10 05:02:00,22.9,19.3,25.06,West,271,3.0,4.0,86,0.00,,,0.00,Wunderground v.1.15,2013-02-10 12:02:00,
2013-02-10 05:07:00,23.2,19.4,25.06,West,268,3.0,5.0,85,0.00,,,0.00,Wunderground v.1.15,2013-02-10 12:07:00,
2013-02-10 05:12:00,23.0,18.9,25.07,NW,321,1.0,2.0,84,0.00,,,0.00,Wunderground v.1.15,2013-02-10 12:12:00,
2013-02-10 05:17:00,22.9,18.8,25.07,NW,321,0.0,2.0,84,0.00,,,0.00,Wunderground v.1.15,2013-02-10 12:17:00,
2013-02-10 05:22:00,22.6,18.5,25.07,WNW,298,0.0,1.0,84,0.00,,,0.00,Wunderground v.1.15,2013-02-10 12:22:00,
2013-02-10 05:27:00,22.3,18.2,25.07,WSW,248,0.0,2.0,84,0.00,,,0.00,Wunderground v.1.15,2013-02-10 12:27:00,
2013-02-10 05:32:00,22.3,18.7,25.08,WSW,249,0.0,2.0,86,0.00,,,0.00,Wunderground v.1.15,2013-02-10 12:32:00,
2013-02-10 05:37:00,22.4,18.3,25.08,WSW,249,1.0,2.0,84,0.00,,,0.00,Wunderground v.1.15,2013-02-10 12:37:00,
2013-02-10 05:42:00,22.3,18.2,25.08,West,259,0.0,3.0,84,0.00,,,0.00,Wunderground v.1.15,2013-02-10 12:42:00,
2013-02-10 05:47:00,22.5,18.7,25.08,WSW,253,2.0,3.0,85,0.00,,,0.00,Wunderground v.1.15,2013-02-10 12:47:00,
2013-02-10 05:52:00,22.5,18.4,25.08,WSW,240,0.0,2.0,84,0.00,,,0.00,Wunderground v.1.15,2013-02-10 12:52:00,
2013-02-10 05:57:00,22.7,18.9,25.08,SSE,157,0.0,3.0,85,0.00,,,0.00,Wunderground v.1.15,2013-02-10 12:57:00,
2013-02-10 06:02:00,23.1,19.3,25.08,SSE,155,1.0,1.0,85,0.00,,,0.00,Wunderground v.1.15,2013-02-10 13:02:00,
2013-02-10 06:07:00,23.4,19.3,25.09,West,274,2.0,4.0,84,0.00,,,0.00,Wunderground v.1.15,2013-02-10 13:07:00,
2013-02-10 06:12:00,23.6,19.2,25.09,West,260,1.0,4.0,83,0.00,,,0.00,Wunderground v.1.15,2013-02-10 13:12:00,
2013-02-10 06:17:00,23.8,19.1,25.09,WSW,253,0.0,4.0,82,0.00,,,0.00,Wunderground v.1.15,2013-02-10 13:17:00,
2013-02-10 06:22:00,23.9,19.2,25.09,SW,217,1.0,1.0,82,0.00,,,0.00,Wunderground v.1.15,2013-02-10 13:22:00,
2013-02-10 06:27:00,24.1,19.1,25.09,SW,217,0.0,1.0,81,0.00,,,0.00,Wunderground v.1.15,2013-02-10 13:27:00,
2013-02-10 06:32:00,23.9,18.9,25.09,SW,217,0.0,1.0,81,0.00,,,0.00,Wunderground v.1.15,2013-02-10 13:32:00,
2013-02-10 06:37:00,23.9,19.2,25.10,SW,215,1.0,2.0,82,0.00,,,0.00,Wunderground v.1.15,2013-02-10 13:37:00,
2013-02-10 06:42:00,24.0,19.3,25.10,West,264,0.0,2.0,82,0.00,,,0.00,Wunderground v.1.15,2013-02-10 13:42:00,
2013-02-10 06:46:00,23.9,18.9,25.10,WSW,244,0.0,2.0,81,0.00,,,0.00,Wunderground v.1.15,2013-02-10 13:46:00,
2013-02-10 06:52:00,23.9,18.9,25.10,WSW,257,0.0,0.0,81,0.00,,,0.00,Wunderground v.1.15,2013-02-10 13:52:00,
2013-02-10 06:57:00,24.0,18.7,25.11,WSW,257,0.0,1.0,80,0.00,,,0.00,Wunderground v.1.15,2013-02-10 13:57:00,
2013-02-10 07:01:00,24.1,18.8,25.11,WSW,257,0.0,0.0,80,0.00,,,0.00,Wunderground v.1.15,2013-02-10 14:01:00,
2013-02-10 07:06:00,24.3,18.4,25.11,WSW,257,0.0,1.0,78,0.00,,,0.00,Wunderground v.1.15,2013-02-10 14:06:00,
2013-02-10 07:12:00,25.3,17.9,25.12,NNW,337,5.0,8.0,73,0.00,,,0.00,Wunderground v.1.15,2013-02-10 14:12:00,
2013-02-10 07:17:00,27.6,17.0,25.12,ENE,61,11.0,11.0,64,0.00,,,0.00,Wunderground v.1.15,2013-02-10 14:17:00,
2013-02-10 07:21:00,28.8,15.9,25.12,ENE,61,9.0,11.0,58,0.00,,,0.00,Wunderground v.1.15,2013-02-10 14:21:00,
2013-02-10 07:26:00,29.4,15.6,25.13,NW,325,7.0,11.0,56,0.00,,,0.00,Wunderground v.1.15,2013-02-10 14:26:00,
2013-02-10 07:31:00,29.8,15.2,25.13,NE,53,6.0,9.0,54,0.00,,,0.00,Wunderground v.1.15,2013-02-10 14:31:00,
2013-02-10 07:36:00,30.0,15.3,25.13,NNW,344,2.0,11.0,54,0.00,,,0.00,Wunderground v.1.15,2013-02-10 14:36:00,
2013-02-10 07:41:00,29.5,18.4,25.13,West,277,2.0,5.0,63,0.00,,,0.00,Wunderground v.1.15,2013-02-10 14:41:00,
2013-02-10 07:46:00,27.5,18.7,25.14,ENE,63,2.0,5.0,69,0.00,,,0.00,Wunderground v.1.15,2013-02-10 14:46:00,
2013-02-10 07:51:00,27.1,17.9,25.14,North,350,0.0,2.0,68,0.00,,,0.00,Wunderground v.1.15,2013-02-10 14:51:00,
2013-02-10 07:56:00,28.6,15.7,25.14,ENE,66,9.0,14.0,58,0.00,,,0.00,Wunderground v.1.15,2013-02-10 14:56:00,
2013-02-10 08:02:00,29.9,15.7,25.14,NE,44,13.0,14.0,55,0.00,,,0.00,Wunderground v.1.15,2013-02-10 15:02:00,
2013-02-10 08:06:00,30.5,15.8,25.14,NNE,19,8.0,16.0,54,0.00,,,0.00,Wunderground v.1.15,2013-02-10 15:06:00,
2013-02-10 08:12:00,30.8,15.7,25.15,ENE,69,12.0,15.0,53,0.00,,,0.00,Wunderground v.1.15,2013-02-10 15:12:00,
2013-02-10 08:16:00,31.1,15.5,25.15,NE,36,8.0,15.0,52,0.00,,,0.00,Wunderground v.1.15,2013-02-10 15:16:00,
2013-02-10 08:21:00,31.4,15.3,25.16,NNE,19,9.0,16.0,51,0.00,,,0.00,Wunderground v.1.15,2013-02-10 15:21:00,
2013-02-10 08:26:00,31.7,14.7,25.16,ENE,74,8.0,16.0,49,0.00,,,0.00,Wunderground v.1.15,2013-02-10 15:26:00,
2013-02-10 08:31:00,31.9,14.9,25.16,ESE,106,12.0,13.0,49,0.00,,,0.00,Wunderground v.1.15,2013-02-10 15:31:00,
2013-02-10 08:36:00,32.0,14.5,25.17,East,94,11.0,17.0,48,0.00,,,0.00,Wunderground v.1.15,2013-02-10 15:36:00,
2013-02-10 08:42:00,32.0,14.5,25.17,ENE,73,8.0,11.0,48,0.00,,,0.00,Wunderground v.1.15,2013-02-10 15:42:00,
2013-02-10 08:47:00,32.1,14.6,25.17,ENE,67,4.0,11.0,48,0.00,,,0.00,Wunderground v.1.15,2013-02-10 15:47:00,
2013-02-10 08:52:00,32.1,15.1,25.17,NNE,31,5.0,6.0,49,0.00,,,0.00,Wunderground v.1.15,2013-02-10 15:52:00,
2013-02-10 08:56:00,32.1,15.1,25.17,NNE,13,1.0,11.0,49,0.00,,,0.00,Wunderground v.1.15,2013-02-10 15:56:00,
2013-02-10 09:02:00,32.2,15.6,25.17,SE,130,3.0,8.0,50,0.00,,,0.00,Wunderground v.1.15,2013-02-10 16:02:00,
2013-02-10 09:07:00,32.2,14.7,25.17,West,277,2.0,14.0,48,0.00,,,0.00,Wunderground v.1.15,2013-02-10 16:07:00,
2013-02-10 09:12:00,32.4,14.9,25.17,NW,321,7.0,11.0,48,0.00,,,0.00,Wunderground v.1.15,2013-02-10 16:12:00,
2013-02-10 09:17:00,32.5,14.0,25.18,ENE,66,5.0,13.0,46,0.00,,,0.00,Wunderground v.1.15,2013-02-10 16:17:00,
2013-02-10 09:22:00,32.6,14.6,25.18,NNW,337,9.0,15.0,47,0.00,,,0.00,Wunderground v.1.15,2013-02-10 16:22:00,
2013-02-10 09:26:00,32.8,14.8,25.18,NE,39,8.0,15.0,47,0.00,,,0.00,Wunderground v.1.15,2013-02-10 16:26:00,
2013-02-10 09:31:00,33.0,15.4,25.18,NNW,333,8.0,12.0,48,0.00,,,0.00,Wunderground v.1.15,2013-02-10 16:31:00,
2013-02-10 09:36:00,33.4,14.8,25.18,NE,43,11.0,12.0,46,0.00,,,0.00,Wunderground v.1.15,2013-02-10 16:36:00,
2013-02-10 09:41:00,33.7,14.6,25.18,NNE,29,7.0,12.0,45,0.00,,,0.00,Wunderground v.1.15,2013-02-10 16:41:00,
2013-02-10 09:46:00,33.7,14.1,25.18,NE,38,10.0,13.0,44,0.00,,,0.00,Wunderground v.1.15,2013-02-10 16:46:00,
2013-02-10 09:51:00,33.9,14.3,25.19,NNE,29,5.0,12.0,44,0.00,,,0.00,Wunderground v.1.15,2013-02-10 16:51:00,
2013-02-10 09:56:00,34.0,13.8,25.19,NNE,32,10.0,15.0,43,0.00,,,0.00,Wunderground v.1.15,2013-02-10 16:56:00,
2013-02-10 10:01:00,34.2,13.5,25.19,NE,50,9.0,18.0,42,0.00,,,0.00,Wunderground v.1.15,2013-02-10 17:01:00,
2013-02-10 10:06:00,34.3,13.6,25.19,NW,321,8.0,18.0,42,0.00,,,0.00,Wunderground v.1.15,2013-02-10 17:06:00,
2013-02-10 10:11:00,34.5,12.6,25.19,NE,49,6.0,15.0,40,0.00,,,0.00,Wunderground v.1.15,2013-02-10 17:11:00,
2013-02-10 10:16:00,34.8,13.5,25.19,ENE,61,7.0,15.0,41,0.00,,,0.00,Wunderground v.1.15,2013-02-10 17:16:00,
2013-02-10 10:21:00,34.8,11.7,25.19,NNE,23,10.0,15.0,38,0.00,,,0.00,Wunderground v.1.15,2013-02-10 17:21:00,
2013-02-10 10:27:00,35.0,12.5,25.20,NE,39,11.0,15.0,39,0.00,,,0.00,Wunderground v.1.15,2013-02-10 17:27:00,
2013-02-10 10:32:00,35.3,12.2,25.20,ENE,75,11.0,12.0,38,0.00,,,0.00,Wunderground v.1.15,2013-02-10 17:32:00,
2013-02-10 10:37:00,35.4,11.1,25.20,NE,36,8.0,21.0,36,0.00,,,0.00,Wunderground v.1.15,2013-02-10 17:37:00,
2013-02-10 10:42:00,35.6,9.3,25.19,NNW,336,7.0,16.0,33,0.00,,,0.00,Wunderground v.1.15,2013-02-10 17:42:00,
2013-02-10 10:47:00,35.9,10.2,25.20,NNE,31,11.0,17.0,34,0.00,,,0.00,Wunderground v.1.15,2013-02-10 17:47:00,
2013-02-10 10:52:00,36.1,11.0,25.20,ESE,114,12.0,13.0,35,0.00,,,0.00,Wunderground v.1.15,2013-02-10 17:52:00,
2013-02-10 10:57:00,36.3,9.9,25.20,NNE,20,9.0,21.0,33,0.00,,,0.00,Wunderground v.1.15,2013-02-10 17:57:00,
2013-02-10 11:02:00,36.6,8.8,25.20,NNE,13,14.0,18.0,31,0.00,,,0.00,Wunderground v.1.15,2013-02-10 18:02:00,
2013-02-10 11:07:00,36.5,8.0,25.20,NNW,345,16.0,21.0,30,0.00,,,0.00,Wunderground v.1.15,2013-02-10 18:07:00,
2013-02-10 11:12:00,36.8,8.2,25.20,NNW,333,13.0,19.0,30,0.00,,,0.00,Wunderground v.1.15,2013-02-10 18:12:00,
2013-02-10 11:17:00,37.0,7.6,25.20,ENE,73,16.0,22.0,29,0.00,,,0.00,Wunderground v.1.15,2013-02-10 18:17:00,
2013-02-10 11:22:00,37.0,7.6,25.20,East,82,10.0,16.0,29,0.00,,,0.00,Wunderground v.1.15,2013-02-10 18:22:00,
2013-02-10 11:27:00,37.1,7.7,25.20,NNE,28,13.0,16.0,29,0.00,,,0.00,Wunderground v.1.15,2013-02-10 18:27:00,
2013-02-10 11:32:00,36.9,7.5,25.20,ENE,57,13.0,17.0,29,0.00,,,0.00,Wunderground v.1.15,2013-02-10 18:32:00,
2013-02-10 11:37:00,36.7,7.4,25.20,NNE,19,15.0,18.0,29,0.00,,,0.00,Wunderground v.1.15,2013-02-10 18:37:00,
2013-02-10 11:42:00,36.3,7.0,25.20,North,5,9.0,22.0,29,0.00,,,0.00,Wunderground v.1.15,2013-02-10 18:42:00,
2013-02-10 11:47:00,36.2,6.9,25.20,NNW,337,10.0,22.0,29,0.00,,,0.00,Wunderground v.1.15,2013-02-10 18:47:00,
2013-02-10 11:52:00,36.2,6.9,25.20,East,90,16.0,20.0,29,0.00,,,0.00,Wunderground v.1.15,2013-02-10 18:52:00,
2013-02-10 11:57:00,36.3,7.0,25.20,SW,233,8.0,20.0,29,0.00,,,0.00,Wunderground v.1.15,2013-02-10 18:57:00,
2013-02-10 12:02:00,36.3,7.0,25.20,NW,326,10.0,17.0,29,0.00,,,0.00,Wunderground v.1.15,2013-02-10 19:02:00,
2013-02-10 12:07:00,36.5,7.2,25.20,NW,325,7.0,19.0,29,0.00,,,0.00,Wunderground v.1.15,2013-02-10 19:07:00,
2013-02-10 12:12:00,36.8,7.5,25.19,NE,49,13.0,16.0,29,0.00,,,0.00,Wunderground v.1.15,2013-02-10 19:12:00,
2013-02-10 12:17:00,36.7,6.6,25.20,NNW,343,8.0,18.0,28,0.00,,,0.00,Wunderground v.1.15,2013-02-10 19:17:00,
2013-02-10 12:22:00,36.6,6.5,25.20,ENE,78,20.0,20.0,28,0.00,,,0.00,Wunderground v.1.15,2013-02-10 19:22:00,
2013-02-10 12:27:00,36.5,6.4,25.20,North,355,12.0,20.0,28,0.00,,,0.00,Wunderground v.1.15,2013-02-10 19:27:00,
2013-02-10 12:32:00,36.3,6.3,25.20,North,350,9.0,15.0,28,0.00,,,0.00,Wunderground v.1.15,2013-02-10 19:32:00,
2013-02-10 12:37:00,36.5,6.4,25.20,ENE,63,16.0,20.0,28,0.00,,,0.00,Wunderground v.1.15,2013-02-10 19:37:00,
2013-02-10 12:42:00,36.5,5.6,25.20,NE,45,10.0,17.0,27,0.00,,,0.00,Wunderground v.1.15,2013-02-10 19:42:00,
2013-02-10 12:47:00,36.6,5.7,25.20,ENE,59,18.0,20.0,27,0.00,,,0.00,Wunderground v.1.15,2013-02-10 19:47:00,
2013-02-10 12:52:00,36.5,6.4,25.20,NNW,327,12.0,14.0,28,0.00,,,0.00,Wunderground v.1.15,2013-02-10 19:52:00,
2013-02-10 12:57:00,36.3,6.3,25.20,NW,321,4.0,18.0,28,0.00,,,0.00,Wunderground v.1.15,2013-02-10 19:57:00,
2013-02-10 13:02:00,36.5,6.4,25.20,NW,321,7.0,9.0,28,0.00,,,0.00,Wunderground v.1.15,2013-02-10 20:02:00,
2013-02-10 13:07:00,36.7,6.6,25.20,SW,217,2.0,15.0,28,0.00,,,0.00,Wunderground v.1.15,2013-02-10 20:07:00,
2013-02-10 13:12:00,36.9,6.0,25.20,NW,323,5.0,10.0,27,0.00,,,0.00,Wunderground v.1.15,2013-02-10 20:12:00,
2013-02-10 13:17:00,36.9,6.0,25.20,ENE,65,8.0,13.0,27,0.00,,,0.00,Wunderground v.1.15,2013-02-10 20:17:00,
2013-02-10 13:22:00,36.8,5.9,25.20,NW,309,2.0,14.0,27,0.00,,,0.00,Wunderground v.1.15,2013-02-10 20:22:00,
2013-02-10 13:27:00,36.7,5.8,25.20,ENE,61,9.0,18.0,27,0.00,,,0.00,Wunderground v.1.15,2013-02-10 20:27:00,
2013-02-10 13:32:00,36.7,7.4,25.20,NNW,329,5.0,9.0,29,0.00,,,0.00,Wunderground v.1.15,2013-02-10 20:32:00,
2013-02-10 13:37:00,36.9,7.5,25.20,ESE,105,4.0,9.0,29,0.00,,,0.00,Wunderground v.1.15,2013-02-10 20:37:00,
2013-02-10 13:42:00,36.9,8.3,25.20,NW,309,7.0,8.0,30,0.00,,,0.00,Wunderground v.1.15,2013-02-10 20:42:00,
2013-02-10 13:47:00,36.9,8.3,25.20,NNE,30,2.0,10.0,30,0.00,,,0.00,Wunderground v.1.15,2013-02-10 20:47:00,
2013-02-10 13:52:00,36.9,8.3,25.21,NW,307,4.0,6.0,30,0.00,,,0.00,Wunderground v.1.15,2013-02-10 20:52:00,
2013-02-10 13:57:00,36.8,8.9,25.21,NW,317,3.0,11.0,31,0.00,,,0.00,Wunderground v.1.15,2013-02-10 20:57:00,
2013-02-10 14:01:00,36.8,8.9,25.21,SSE,160,3.0,8.0,31,0.00,,,0.00,Wunderground v.1.15,2013-02-10 21:01:00,
2013-02-10 14:06:00,36.8,8.9,25.21,NW,309,4.0,11.0,31,0.00,,,0.00,Wunderground v.1.15,2013-02-10 21:06:00,
2013-02-10 14:11:00,36.7,8.9,25.21,WNW,302,2.0,7.0,31,0.00,,,0.00,Wunderground v.1.15,2013-02-10 21:11:00,
2013-02-10 14:16:00,37.0,9.8,25.21,NW,307,1.0,7.0,32,0.00,,,0.00,Wunderground v.1.15,2013-02-10 21:16:00,
2013-02-10 14:21:00,37.0,9.1,25.21,ESE,116,2.0,7.0,31,0.00,,,0.00,Wunderground v.1.15,2013-02-10 21:21:00,
2013-02-10 14:26:00,36.8,9.7,25.21,SW,219,3.0,8.0,32,0.00,,,0.00,Wunderground v.1.15,2013-02-10 21:26:00,
2013-02-10 14:31:00,36.8,9.7,25.22,SE,130,0.0,2.0,32,0.00,,,0.00,Wunderground v.1.15,2013-02-10 21:31:00,
2013-02-10 14:36:00,36.9,9.7,25.22,WNW,303,4.0,7.0,32,0.00,,,0.00,Wunderground v.1.15,2013-02-10 21:36:00,
2013-02-10 14:41:00,36.3,9.2,25.22,NNW,340,5.0,8.0,32,0.00,,,0.00,Wunderground v.1.15,2013-02-10 21:41:00,
2013-02-10 14:46:00,35.7,9.4,25.22,NE,45,15.0,18.0,33,0.00,,,0.00,Wunderground v.1.15,2013-02-10 21:46:00,
2013-02-10 14:51:00,35.3,9.7,25.23,WNW,292,3.0,9.0,34,0.00,,,0.00,Wunderground v.1.15,2013-02-10 21:51:00,
2013-02-10 14:56:00,35.4,9.8,25.23,West,279,1.0,9.0,34,0.00,,,0.00,Wunderground v.1.15,2013-02-10 21:56:00,
2013-02-10 15:01:00,35.5,9.9,25.23,NW,309,7.0,13.0,34,0.00,,,0.00,Wunderground v.1.15,2013-02-10 22:01:00,
2013-02-10 15:06:00,35.4,9.8,25.23,NW,325,3.0,13.0,34,0.00,,,0.00,Wunderground v.1.15,2013-02-10 22:06:00,
2013-02-10 15:11:00,35.3,9.7,25.24,ENE,67,7.0,13.0,34,0.00,,,0.00,Wunderground v.1.15,2013-02-10 22:11:00,
2013-02-10 15:16:00,35.3,9.7,25.24,WNW,292,1.0,13.0,34,0.00,,,0.00,Wunderground v.1.15,2013-02-10 22:16:00,
2013-02-10 15:21:00,35.4,9.8,25.24,NW,315,2.0,9.0,34,0.00,,,0.00,Wunderground v.1.15,2013-02-10 22:21:00,
2013-02-10 15:26:00,35.5,10.5,25.24,SE,146,1.0,9.0,35,0.00,,,0.00,Wunderground v.1.15,2013-02-10 22:26:00,
2013-02-10 15:31:00,35.6,10.6,25.25,NW,311,2.0,7.0,35,0.00,,,0.00,Wunderground v.1.15,2013-02-10 22:31:00,
2013-02-10 15:36:00,35.4,10.4,25.25,WNW,296,2.0,7.0,35,0.00,,,0.00,Wunderground v.1.15,2013-02-10 22:36:00,
2013-02-10 15:41:00,35.1,10.2,25.25,NNW,341,9.0,12.0,35,0.00,,,0.00,Wunderground v.1.15,2013-02-10 22:41:00,
2013-02-10 15:46:00,34.8,10.5,25.25,WSW,253,1.0,12.0,36,0.00,,,0.00,Wunderground v.1.15,2013-02-10 22:46:00,
2013-02-10 15:51:00,34.8,10.5,25.25,NE,35,3.0,9.0,36,0.00,,,0.00,Wunderground v.1.15,2013-02-10 22:51:00,
2013-02-10 15:56:00,34.7,10.4,25.25,ENE,69,2.0,11.0,36,0.00,,,0.00,Wunderground v.1.15,2013-02-10 22:56:00,
2013-02-10 16:01:00,34.6,10.3,25.25,NNW,327,2.0,4.0,36,0.00,,,0.00,Wunderground v.1.15,2013-02-10 23:01:00,
2013-02-10 16:06:00,34.6,10.3,25.25,NW,325,2.0,6.0,36,0.00,,,0.00,Wunderground v.1.15,2013-02-10 23:06:00,
2013-02-10 16:11:00,34.4,10.8,25.26,NNE,28,4.0,6.0,37,0.00,,,0.00,Wunderground v.1.15,2013-02-10 23:11:00,
2013-02-10 16:16:00,34.2,11.2,25.26,NNE,15,5.0,10.0,38,0.00,,,0.00,Wunderground v.1.15,2013-02-10 23:16:00,
2013-02-10 16:21:00,34.1,11.1,25.26,SE,126,1.0,4.0,38,0.00,,,0.00,Wunderground v.1.15,2013-02-10 23:21:00,
2013-02-10 16:26:00,34.1,10.5,25.26,NW,323,6.0,6.0,37,0.00,,,0.00,Wunderground v.1.15,2013-02-10 23:26:00,
2013-02-10 16:31:00,33.8,10.8,25.26,East,99,5.0,7.0,38,0.00,,,0.00,Wunderground v.1.15,2013-02-10 23:31:00,
2013-02-10 16:36:00,33.7,10.7,25.26,NNW,344,4.0,9.0,38,0.00,,,0.00,Wunderground v.1.15,2013-02-10 23:36:00,
2013-02-10 16:41:00,33.7,10.1,25.26,NE,54,5.0,9.0,37,0.00,,,0.00,Wunderground v.1.15,2013-02-10 23:41:00,
2013-02-10 16:46:00,33.5,10.6,25.27,ESE,116,0.0,9.0,38,0.00,,,0.00,Wunderground v.1.15,2013-02-10 23:46:00,
2013-02-10 16:51:00,33.5,10.6,25.27,NW,314,0.0,3.0,38,0.00,,,0.00,Wunderground v.1.15,2013-02-10 23:51:00,
2013-02-10 16:56:00,33.5,10.0,25.27,SE,134,1.0,4.0,37,0.00,,,0.00,Wunderground v.1.15,2013-02-10 23:56:00,
2013-02-10 17:01:00,33.2,9.7,25.27,NW,309,1.0,3.0,37,0.00,,,0.00,Wunderground v.1.15,2013-02-11 00:01:00,
2013-02-10 17:06:00,32.8,9.3,25.27,NNW,342,4.0,5.0,37,0.00,,,0.00,Wunderground v.1.15,2013-02-11 00:06:00,
2013-02-10 17:11:00,32.5,9.1,25.28,WNW,292,1.0,2.0,37,0.00,,,0.00,Wunderground v.1.15,2013-02-11 00:11:00,
2013-02-10 17:16:00,32.2,8.8,25.28,WNW,300,1.0,4.0,37,0.00,,,0.00,Wunderground v.1.15,2013-02-11 00:16:00,
2013-02-10 17:21:00,31.9,9.1,25.28,NW,304,0.0,1.0,38,0.00,,,0.00,Wunderground v.1.15,2013-02-11 00:21:00,
2013-02-10 17:26:00,31.5,8.8,25.28,NW,307,2.0,3.0,38,0.00,,,0.00,Wunderground v.1.15,2013-02-11 00:26:00,
2013-02-10 17:31:00,31.2,9.1,25.28,SE,142,0.0,1.0,39,0.00,,,0.00,Wunderground v.1.15,2013-02-11 00:31:00,
2013-02-10 17:36:00,30.9,9.4,25.29,NE,36,4.0,5.0,40,0.00,,,0.00,Wunderground v.1.15,2013-02-11 00:36:00,
2013-02-10 17:41:00,30.6,11.2,25.29,NE,50,3.0,11.0,44,0.00,,,0.00,Wunderground v.1.15,2013-02-11 00:41:00,
2013-02-10 17:46:00,30.3,11.0,25.29,ENE,71,3.0,11.0,44,0.00,,,0.00,Wunderground v.1.15,2013-02-11 00:46:00,
2013-02-10 17:51:00,30.1,11.3,25.30,East,86,7.0,7.0,45,0.00,,,0.00,Wunderground v.1.15,2013-02-11 00:51:00,
2013-02-10 17:56:00,29.7,12.8,25.30,NE,53,9.0,9.0,49,0.00,,,0.00,Wunderground v.1.15,2013-02-11 00:56:00,
2013-02-10 18:01:00,29.2,12.8,25.30,SE,133,7.0,9.0,50,0.00,,,0.00,Wunderground v.1.15,2013-02-11 01:01:00,
2013-02-10 18:06:00,28.8,12.9,25.31,ENE,73,2.0,11.0,51,0.00,,,0.00,Wunderground v.1.15,2013-02-11 01:06:00,
2013-02-10 18:11:00,28.4,13.0,25.31,East,84,8.0,8.0,52,0.00,,,0.00,Wunderground v.1.15,2013-02-11 01:11:00,
2013-02-10 18:16:00,28.1,13.6,25.31,East,88,6.0,11.0,54,0.00,,,0.00,Wunderground v.1.15,2013-02-11 01:16:00,
2013-02-10 18:21:00,27.8,13.7,25.32,ENE,65,5.0,8.0,55,0.00,,,0.00,Wunderground v.1.15,2013-02-11 01:21:00,
2013-02-10 18:26:00,27.4,13.3,25.32,ENE,74,8.0,11.0,55,0.00,,,0.00,Wunderground v.1.15,2013-02-11 01:26:00,
2013-02-10 18:31:00,27.1,13.5,25.32,East,82,9.0,10.0,56,0.00,,,0.00,Wunderground v.1.15,2013-02-11 01:31:00,
2013-02-10 18:36:00,26.9,13.7,25.32,SSE,163,3.0,10.0,57,0.00,,,0.00,Wunderground v.1.15,2013-02-11 01:36:00,
2013-02-10 18:41:00,26.6,13.4,25.33,East,83,5.0,7.0,57,0.00,,,0.00,Wunderground v.1.15,2013-02-11 01:41:00,
2013-02-10 18:46:00,26.4,13.6,25.33,East,93,2.0,7.0,58,0.00,,,0.00,Wunderground v.1.15,2013-02-11 01:46:00,
2013-02-10 18:51:00,26.1,13.3,25.33,ENE,77,4.0,6.0,58,0.00,,,0.00,Wunderground v.1.15,2013-02-11 01:51:00,
2013-02-10 18:56:00,25.9,13.5,25.33,ESE,122,3.0,9.0,59,0.00,,,0.00,Wunderground v.1.15,2013-02-11 01:56:00,
2013-02-10 19:01:00,25.6,13.2,25.33,SE,138,3.0,5.0,59,0.00,,,0.00,Wunderground v.1.15,2013-02-11 02:01:00,
2013-02-10 19:06:00,25.0,13.1,25.34,SSE,155,2.0,5.0,60,0.00,,,0.00,Wunderground v.1.15,2013-02-11 02:06:00,
2013-02-10 19:11:00,24.5,13.0,25.34,SSW,203,4.0,7.0,61,0.00,,,0.00,Wunderground v.1.15,2013-02-11 02:11:00,
2013-02-10 19:16:00,23.8,12.7,25.34,SSW,213,1.0,7.0,62,0.00,,,0.00,Wunderground v.1.15,2013-02-11 02:16:00,
2013-02-10 19:21:00,23.0,12.3,25.34,WSW,249,3.0,4.0,63,0.00,,,0.00,Wunderground v.1.15,2013-02-11 02:21:00,
2013-02-10 19:26:00,22.5,12.1,25.34,WSW,237,1.0,4.0,64,0.00,,,0.00,Wunderground v.1.15,2013-02-11 02:26:00,
2013-02-10 19:31:00,22.2,12.6,25.35,WSW,237,0.0,1.0,66,0.00,,,0.00,Wunderground v.1.15,2013-02-11 02:31:00,
2013-02-10 19:36:00,21.9,11.9,25.35,West,261,3.0,3.0,65,0.00,,,0.00,Wunderground v.1.15,2013-02-11 02:36:00,
2013-02-10 19:41:00,21.2,11.9,25.35,WSW,254,3.0,3.0,67,0.00,,,0.00,Wunderground v.1.15,2013-02-11 02:41:00,
2013-02-10 19:46:00,20.6,11.7,25.35,SW,220,2.0,3.0,68,0.00,,,0.00,Wunderground v.1.15,2013-02-11 02:46:00,
2013-02-10 19:51:00,20.5,12.3,25.35,SW,218,1.0,2.0,70,0.00,,,0.00,Wunderground v.1.15,2013-02-11 02:51:00,
2013-02-10 19:56:00,20.5,11.9,25.36,SW,218,0.0,2.0,69,0.00,,,0.00,Wunderground v.1.15,2013-02-11 02:56:00,
2013-02-10 20:01:00,20.5,11.9,25.36,SW,218,0.0,1.0,69,0.00,,,0.00,Wunderground v.1.15,2013-02-11 03:01:00,
2013-02-10 20:06:00,20.2,11.7,25.36,SW,214,0.0,2.0,69,0.00,,,0.00,Wunderground v.1.15,2013-02-11 03:06:00,
2013-02-10 20:11:00,19.9,11.7,25.37,SW,233,1.0,2.0,70,0.00,,,0.00,Wunderground v.1.15,2013-02-11 03:11:00,
2013-02-10 20:16:00,19.8,12.2,25.37,SW,223,5.0,5.0,72,0.00,,,0.00,Wunderground v.1.15,2013-02-11 03:16:00,
2013-02-10 20:21:00,19.5,11.3,25.37,SSW,210,3.0,3.0,70,0.00,,,0.00,Wunderground v.1.15,2013-02-11 03:21:00,
2013-02-10 20:26:00,19.6,11.7,25.37,SSW,204,2.0,4.0,71,0.00,,,0.00,Wunderground v.1.15,2013-02-11 03:26:00,
2013-02-10 20:31:00,19.8,11.9,25.38,West,265,2.0,3.0,71,0.00,,,0.00,Wunderground v.1.15,2013-02-11 03:31:00,
2013-02-10 20:36:00,20.3,12.1,25.38,West,263,3.0,4.0,70,0.00,,,0.00,Wunderground v.1.15,2013-02-11 03:36:00,
2013-02-10 20:41:00,20.6,12.4,25.38,WSW,238,5.0,6.0,70,0.00,,,0.00,Wunderground v.1.15,2013-02-11 03:41:00,
2013-02-10 20:46:00,20.5,11.9,25.38,WSW,245,3.0,6.0,69,0.00,,,0.00,Wunderground v.1.15,2013-02-11 03:46:00,
2013-02-10 20:51:00,20.7,12.1,25.39,SSE,163,6.0,7.0,69,0.00,,,0.00,Wunderground v.1.15,2013-02-11 03:51:00,
2013-02-10 20:56:00,20.9,12.3,25.39,SSE,152,6.0,7.0,69,0.00,,,0.00,Wunderground v.1.15,2013-02-11 03:56:00,
2013-02-10 21:01:00,21.1,12.2,25.39,SE,134,3.0,5.0,68,0.00,,,0.00,Wunderground v.1.15,2013-02-11 04:01:00,
2013-02-10 21:06:00,21.3,12.4,25.39,ESE,118,4.0,6.0,68,0.00,,,0.00,Wunderground v.1.15,2013-02-11 04:06:00,
2013-02-10 21:11:00,21.4,12.1,25.40,East,97,3.0,10.0,67,0.00,,,0.00,Wunderground v.1.15,2013-02-11 04:11:00,
2013-02-10 21:16:00,21.3,12.0,25.40,ENE,75,7.0,10.0,67,0.00,,,0.00,Wunderground v.1.15,2013-02-11 04:16:00,
2013-02-10 21:21:00,21.3,12.4,25.40,NE,44,8.0,10.0,68,0.00,,,0.00,Wunderground v.1.15,2013-02-11 04:21:00,
2013-02-10 21:26:00,21.5,12.6,25.40,SE,137,9.0,12.0,68,0.00,,,0.00,Wunderground v.1.15,2013-02-11 04:26:00,
2013-02-10 21:31:00,21.7,12.8,25.40,ENE,61,4.0,11.0,68,0.00,,,0.00,Wunderground v.1.15,2013-02-11 04:31:00,
2013-02-10 21:36:00,21.8,12.9,25.40,East,93,5.0,11.0,68,0.00,,,0.00,Wunderground v.1.15,2013-02-11 04:36:00,
2013-02-10 21:41:00,21.7,12.4,25.40,ESE,107,8.0,8.0,67,0.00,,,0.00,Wunderground v.1.15,2013-02-11 04:41:00,
2013-02-10 21:46:00,21.4,12.1,25.40,ESE,118,1.0,9.0,67,0.00,,,0.00,Wunderground v.1.15,2013-02-11 04:46:00,
2013-02-10 21:51:00,21.2,12.3,25.40,ENE,63,4.0,9.0,68,0.00,,,0.00,Wunderground v.1.15,2013-02-11 04:51:00,
2013-02-10 21:56:00,21.0,12.4,25.40,South,169,4.0,9.0,69,0.00,,,0.00,Wunderground v.1.15,2013-02-11 04:56:00,
2013-02-10 22:00:00,20.9,12.3,25.40,East,87,3.0,4.0,69,0.00,,,0.00,Wunderground v.1.15,2013-02-11 05:00:00,
2013-02-10 22:05:00,20.8,12.6,25.41,East,90,3.0,8.0,70,0.00,,,0.00,Wunderground v.1.15,2013-02-11 05:05:00,
2013-02-10 22:10:00,20.8,12.6,25.41,SE,138,2.0,5.0,70,0.00,,,0.00,Wunderground v.1.15,2013-02-11 05:10:00,
2013-02-10 22:15:00,20.8,12.6,25.41,East,88,2.0,8.0,70,0.00,,,0.00,Wunderground v.1.15,2013-02-11 05:15:00,
2013-02-10 22:20:00,20.7,12.8,25.41,West,275,1.0,4.0,71,0.00,,,0.00,Wunderground v.1.15,2013-02-11 05:20:00,
2013-02-10 22:25:00,20.7,12.8,25.41,ENE,61,4.0,8.0,71,0.00,,,0.00,Wunderground v.1.15,2013-02-11 05:25:00,
2013-02-10 22:27:00,20.7,12.8,25.41,East,90,5.0,8.0,71,0.00,,,0.00,Wunderground v.1.15,2013-02-11 05:27:00,
2013-02-10 22:32:00,20.8,12.9,25.41,SSE,157,1.0,6.0,71,0.00,,,0.00,Wunderground v.1.15,2013-02-11 05:32:00,
2013-02-10 22:37:00,20.9,13.0,25.41,ESE,121,4.0,9.0,71,0.00,,,0.00,Wunderground v.1.15,2013-02-11 05:37:00,
2013-02-10 22:42:00,21.0,12.7,25.41,NE,50,8.0,8.0,70,0.00,,,0.00,Wunderground v.1.15,2013-02-11 05:42:00,
2013-02-10 22:44:00,21.0,12.7,25.41,SSE,149,3.0,8.0,70,0.00,,,0.00,Wunderground v.1.15,2013-02-11 05:44:00,
2013-02-10 22:49:00,21.0,12.7,25.41,East,84,3.0,9.0,70,0.00,,,0.00,Wunderground v.1.15,2013-02-11 05:49:00,
2013-02-10 22:54:00,21.0,12.7,25.42,East,81,6.0,9.0,70,0.00,,,0.00,Wunderground v.1.15,2013-02-11 05:54:00,
2013-02-10 22:59:00,21.0,12.7,25.42,ESE,121,8.0,10.0,70,0.00,,,0.00,Wunderground v.1.15,2013-02-11 05:59:00,
2013-02-10 23:04:00,21.0,12.7,25.41,ESE,118,8.0,10.0,70,0.00,,,0.00,Wunderground v.1.15,2013-02-11 06:04:00,
2013-02-10 23:09:00,21.0,12.7,25.42,SE,134,7.0,10.0,70,0.00,,,0.00,Wunderground v.1.15,2013-02-11 06:09:00,
2013-02-10 23:14:00,20.9,12.3,25.42,South,182,5.0,10.0,69,0.00,,,0.00,Wunderground v.1.15,2013-02-11 06:14:00,
2013-02-10 23:19:00,20.8,12.2,25.42,East,94,8.0,10.0,69,0.00,,,0.00,Wunderground v.1.15,2013-02-11 06:19:00,
2013-02-10 23:24:00,20.7,12.5,25.42,SE,130,4.0,12.0,70,0.00,,,0.00,Wunderground v.1.15,2013-02-11 06:24:00,
2013-02-10 23:29:00,20.7,12.5,25.42,SSW,206,2.0,12.0,70,0.00,,,0.00,Wunderground v.1.15,2013-02-11 06:29:00,
2013-02-10 23:33:00,20.7,12.5,25.43,SE,142,5.0,11.0,70,0.00,,,0.00,Wunderground v.1.15,2013-02-11 06:33:00,
2013-02-10 23:38:00,20.7,12.5,25.43,SW,224,4.0,11.0,70,0.00,,,0.00,Wunderground v.1.15,2013-02-11 06:38:00,
2013-02-10 23:43:00,20.7,12.5,25.43,SE,134,2.0,8.0,70,0.00,,,0.00,Wunderground v.1.15,2013-02-11 06:43:00,
2013-02-10 23:48:00,20.7,12.5,25.43,SSE,154,3.0,9.0,70,0.00,,,0.00,Wunderground v.1.15,2013-02-11 06:48:00,
2013-02-10 23:53:00,20.7,12.5,25.43,ENE,78,5.0,8.0,70,0.00,,,0.00,Wunderground v.1.15,2013-02-11 06:53:00,
2013-02-10 23:58:00,20.6,12.4,25.43,ESE,118,4.0,9.0,70,0.00,,,0.00,Wunderground v.1.15,2013-02-11 06:58:00,